< < Back
Terminal Aerodrome Forecast


Current Version              Previous Versions:   1  2  3  4  5  6  7  8  9  

Terminal Aerodrome Forecast

817
FTUS42 KCAE 212200 AAB
TAFCAE
TAF AMD
KCAE 212218Z 2122/2218 VRB04KT 6SM -RA SCT025 BKN080
     FM220000 VRB03KT P6SM VCSH SCT025 BKN045
     FM220800 VRB03KT 5SM BR SCT007 BKN015
     FM221200 VRB03KT 4SM BR BKN006
     FM221400 08005KT P6SM BKN025=



Latest METAR

730
SAUS80 KWBC 221100 CCA
MTRCAE
METAR KCAE 221056Z 04003KT 10SM OVC005 24/22 A3010 RMK AO2 RAE05 SLP189
P0000 T02440222


USA.gov is the U.S. government's official web portal to all federal, state and local government web resources and services.